createdAt,value
2018-12-17T00:01:01.989Z,21.65
2018-12-17T00:03:06.333Z,21.15
2018-12-17T00:05:10.255Z,20.92
2018-12-17T00:07:14.474Z,21.00
2018-12-17T00:09:17.943Z,22.35
2018-12-17T00:11:21.211Z,21.12
2018-12-17T00:13:24.422Z,22.20
2018-12-17T00:15:27.929Z,22.00
2018-12-17T00:17:31.343Z,21.37
2018-12-17T00:19:34.529Z,20.93
2018-12-17T00:21:38.046Z,20.80
2018-12-17T00:23:41.502Z,20.90
2018-12-17T00:25:45.006Z,22.10
2018-12-17T00:27:48.886Z,21.55
2018-12-17T00:29:52.365Z,22.80
2018-12-17T00:31:55.994Z,21.73
2018-12-17T00:33:59.451Z,22.40
2018-12-17T00:36:02.668Z,20.97
2018-12-17T00:38:05.891Z,21.70
2018-12-17T00:40:10.495Z,21.60
2018-12-17T00:42:14.422Z,22.00
2018-12-17T00:44:17.911Z,22.27
2018-12-17T00:46:21.869Z,22.70
2018-12-17T00:48:25.477Z,22.62
2018-12-17T00:50:29.384Z,21.30
2018-12-17T00:52:33.251Z,22.40
2018-12-17T00:54:36.846Z,22.47
2018-12-17T00:56:41.022Z,22.20
2018-12-17T00:58:44.486Z,21.15
2018-12-17T01:00:48.187Z,21.20
2018-12-17T01:02:51.892Z,21.50
2018-12-17T01:04:56.182Z,21.37
2018-12-17T01:07:00.074Z,22.00
2018-12-17T01:09:06.284Z,21.70
2018-12-17T01:11:09.851Z,21.75
2018-12-17T01:13:13.288Z,22.22
2018-12-17T01:15:17.172Z,20.85
2018-12-17T01:17:20.643Z,22.67
2018-12-17T01:19:23.810Z,20.77
2018-12-17T01:21:27.668Z,22.62
2018-12-17T01:23:31.134Z,22.15
2018-12-17T01:25:34.606Z,21.65
2018-12-17T01:27:38.500Z,21.73
2018-12-17T01:29:42.338Z,21.65
2018-12-17T01:31:45.808Z,20.85
2018-12-17T01:33:49.761Z,22.10
2018-12-17T01:35:53.250Z,22.02
2018-12-17T01:37:56.856Z,21.85
2018-12-17T01:40:00.745Z,21.40
2018-12-17T01:42:04.691Z,21.50
2018-12-17T01:44:08.171Z,21.82
2018-12-17T01:46:12.162Z,22.58
2018-12-17T01:48:16.326Z,21.65
2018-12-17T01:50:19.863Z,22.60
2018-12-17T01:52:23.372Z,20.37
2018-12-17T01:54:26.854Z,22.13
2018-12-17T01:56:30.067Z,22.10
2018-12-17T01:58:33.596Z,21.20
2018-12-17T02:00:37.058Z,21.27
2018-12-17T02:02:40.326Z,21.77
2018-12-17T02:04:44.109Z,21.23
2018-12-17T02:06:47.321Z,21.23
2018-12-17T02:08:51.425Z,22.05
2018-12-17T02:10:55.013Z,22.00
2018-12-17T02:12:58.437Z,21.13
2018-12-17T02:15:03.209Z,22.13
2018-12-17T02:17:06.664Z,22.37
2018-12-17T02:19:10.175Z,22.05
2018-12-17T02:21:13.964Z,20.70
2018-12-17T02:23:17.446Z,20.77
2018-12-17T02:25:21.124Z,21.70
2018-12-17T02:27:24.626Z,22.35
2018-12-17T02:29:28.929Z,21.77
2018-12-17T02:31:32.836Z,22.85
2018-12-17T02:33:36.457Z,21.97
2018-12-17T02:35:40.557Z,22.32
2018-12-17T02:37:44.035Z,20.60
2018-12-17T02:39:47.531Z,21.52
2018-12-17T02:41:51.101Z,21.93
2018-12-17T02:43:55.338Z,21.48
2018-12-17T02:45:59.265Z,22.67
2018-12-17T02:48:02.958Z,22.87
2018-12-17T02:50:06.727Z,22.15
2018-12-17T02:52:10.229Z,22.20
2018-12-17T02:54:13.630Z,22.43
2018-12-17T02:56:17.120Z,22.45
2018-12-17T02:58:21.186Z,21.62
2018-12-17T03:00:25.351Z,21.17
2018-12-17T03:02:29.027Z,22.87
2018-12-17T03:04:32.526Z,22.93
2018-12-17T03:06:36.394Z,20.90
2018-12-17T03:08:39.580Z,22.60
2018-12-17T03:10:43.065Z,24.32
2018-12-17T03:12:46.854Z,23.20
2018-12-17T03:14:50.327Z,22.67
2018-12-17T03:16:53.527Z,22.60
2018-12-17T03:18:56.743Z,21.90
2018-12-17T03:21:00.625Z,23.90
2018-12-17T03:23:04.281Z,24.55
2018-12-17T03:25:08.337Z,22.90
2018-12-17T03:27:12.238Z,23.67
2018-12-17T03:29:15.758Z,23.50
2018-12-17T03:31:19.830Z,22.90
2018-12-17T03:33:23.247Z,21.80
2018-12-17T03:35:27.041Z,22.90
2018-12-17T03:37:30.856Z,23.92
2018-12-17T03:39:34.328Z,23.77
2018-12-17T03:41:37.802Z,21.75
2018-12-17T03:43:41.317Z,23.47
2018-12-17T03:45:44.949Z,23.10
2018-12-17T03:47:48.484Z,24.95
2018-12-17T03:49:52.086Z,24.85
2018-12-17T03:51:55.571Z,24.47
2018-12-17T03:53:59.178Z,24.20
2018-12-17T03:56:02.666Z,23.70
2018-12-17T03:58:06.187Z,24.90
2018-12-17T04:00:10.767Z,25.55
2018-12-17T04:02:14.298Z,24.30
2018-12-17T04:04:17.894Z,23.32
2018-12-17T04:06:21.402Z,25.27
2018-12-17T04:08:24.875Z,22.65
2018-12-17T04:10:28.182Z,24.43
2018-12-17T04:12:31.904Z,25.10
2018-12-17T04:14:35.123Z,25.60
2018-12-17T04:16:38.930Z,26.42
2018-12-17T04:18:42.184Z,25.50
2018-12-17T04:20:45.412Z,24.53
2018-12-17T04:22:48.930Z,25.00
2018-12-17T04:24:52.446Z,25.15
2018-12-17T04:26:55.992Z,25.30
2018-12-17T04:29:06.635Z,26.68
2018-12-17T04:31:05.701Z,24.55
2018-12-17T04:33:09.227Z,25.95
2018-12-17T04:35:12.750Z,26.90
2018-12-17T04:37:16.282Z,25.35
2018-12-17T04:39:19.768Z,26.30
2018-12-17T04:41:23.431Z,25.65
2018-12-17T04:43:26.949Z,25.70
2018-12-17T04:45:30.502Z,26.50
2018-12-17T04:47:34.028Z,27.77
2018-12-17T04:49:37.554Z,27.10
2018-12-17T04:51:41.050Z,27.20
2018-12-17T04:53:44.244Z,26.73
2018-12-17T04:55:48.014Z,28.20
2018-12-17T04:57:51.875Z,26.57
2018-12-17T04:59:55.343Z,27.52
2018-12-17T05:01:58.902Z,28.47
2018-12-17T05:04:02.822Z,26.60
2018-12-17T05:06:06.714Z,28.32
2018-12-17T05:08:10.239Z,28.20
2018-12-17T05:10:14.540Z,28.95
2018-12-17T05:12:17.748Z,27.90
2018-12-17T05:14:21.438Z,28.30
2018-12-17T05:16:24.986Z,29.75
2018-12-17T05:18:28.481Z,29.35
2018-12-17T05:20:32.418Z,30.55
2018-12-17T05:22:35.890Z,29.12
2018-12-17T05:24:39.665Z,29.75
2018-12-17T05:26:43.544Z,29.10
2018-12-17T05:28:47.425Z,28.00
2018-12-17T05:30:51.099Z,28.67
2018-12-17T05:32:54.351Z,30.10
2018-12-17T05:34:58.088Z,28.57
2018-12-17T05:37:01.327Z,29.85
2018-12-17T05:39:07.330Z,28.97
2018-12-17T05:41:11.138Z,30.25
2018-12-17T05:43:14.605Z,28.05
2018-12-17T05:45:17.827Z,28.60
2018-12-17T05:47:22.130Z,28.67
2018-12-17T05:49:25.589Z,29.10
2018-12-17T05:51:29.330Z,28.40
2018-12-17T05:53:32.915Z,29.60
2018-12-17T05:55:36.122Z,29.70
2018-12-17T05:57:39.626Z,27.48
2018-12-17T05:59:43.178Z,26.52
2018-12-17T06:01:46.702Z,29.00
2018-12-17T06:03:50.206Z,29.70
2018-12-17T06:05:53.393Z,28.70
2018-12-17T06:07:57.175Z,27.27
2018-12-17T06:10:00.533Z,27.90
2018-12-17T06:12:04.326Z,28.62
2018-12-17T06:14:07.508Z,30.77
2018-12-17T06:16:10.746Z,29.37
2018-12-17T06:18:14.444Z,28.57
2018-12-17T06:20:17.662Z,29.35
2018-12-17T06:22:21.164Z,27.80
2018-12-17T06:24:24.884Z,29.27
2018-12-17T06:26:28.746Z,28.55
2018-12-17T06:28:32.674Z,30.80
2018-12-17T06:30:36.185Z,28.27
2018-12-17T06:32:39.663Z,28.42
2018-12-17T06:34:43.158Z,28.10
2018-12-17T06:36:46.393Z,28.63
2018-12-17T06:38:49.887Z,28.83
2018-12-17T06:40:53.639Z,27.45
2018-12-17T06:42:57.112Z,28.42
2018-12-17T06:45:00.554Z,27.50
2018-12-17T06:47:04.126Z,28.47
2018-12-17T06:49:07.695Z,28.57
2018-12-17T06:51:11.218Z,27.75
2018-12-17T06:53:14.826Z,29.02
2018-12-17T06:55:18.332Z,29.72
2018-12-17T06:57:22.027Z,29.72
2018-12-17T06:59:25.695Z,29.10
2018-12-17T07:01:29.182Z,27.73
2018-12-17T07:03:32.766Z,26.75
2018-12-17T07:05:36.006Z,27.93
2018-12-17T07:07:39.205Z,26.53
2018-12-17T07:09:42.726Z,29.07
2018-12-17T07:11:46.594Z,27.35
2018-12-17T07:13:50.227Z,26.85
2018-12-17T07:15:53.447Z,26.83
2018-12-17T07:17:57.421Z,28.17
2018-12-17T07:20:00.631Z,26.93
2018-12-17T07:22:04.482Z,27.77
2018-12-17T07:24:08.071Z,27.93
2018-12-17T07:26:11.550Z,27.90
2018-12-17T07:28:14.810Z,26.43
2018-12-17T07:30:18.742Z,26.40
2018-12-17T07:32:22.007Z,26.20
2018-12-17T07:34:30.106Z,29.80
2018-12-17T07:36:34.151Z,28.40
2018-12-17T07:38:37.604Z,28.35
2018-12-17T07:40:41.110Z,28.67
2018-12-17T07:42:44.339Z,27.97
2018-12-17T07:44:47.902Z,27.13
2018-12-17T07:46:51.432Z,27.50
2018-12-17T07:48:55.242Z,27.58
2018-12-17T07:50:58.564Z,27.42
2018-12-17T07:53:02.301Z,28.25
2018-12-17T07:55:07.061Z,29.05
2018-12-17T07:57:10.522Z,29.25
2018-12-17T07:59:13.737Z,29.90
2018-12-17T08:01:16.983Z,28.07
2018-12-17T08:03:20.452Z,29.85
2018-12-17T08:05:23.998Z,28.90
2018-12-17T08:07:27.408Z,29.57
2018-12-17T08:09:30.906Z,28.12
2018-12-17T08:11:35.203Z,26.83
2018-12-17T08:13:38.842Z,27.87
2018-12-17T08:15:42.354Z,27.98
2018-12-17T08:17:45.572Z,27.67
2018-12-17T08:19:49.132Z,29.70
2018-12-17T08:21:52.594Z,27.58
2018-12-17T08:23:55.811Z,28.23
2018-12-17T08:25:59.654Z,28.55
2018-12-17T08:28:02.838Z,27.45
2018-12-17T08:30:07.714Z,26.23
2018-12-17T08:32:11.606Z,27.40
2018-12-17T08:34:15.245Z,27.42
2018-12-17T08:36:19.171Z,28.87
2018-12-17T08:38:22.682Z,28.23
2018-12-17T08:40:26.142Z,28.65
2018-12-17T08:42:29.930Z,26.48
2018-12-17T08:44:33.562Z,29.20
2018-12-17T08:46:37.534Z,28.60
2018-12-17T08:48:41.034Z,29.72
2018-12-17T08:50:44.701Z,30.02
2018-12-17T08:52:48.199Z,30.37
2018-12-17T08:54:52.182Z,29.32
2018-12-17T08:56:55.655Z,29.20
2018-12-17T08:58:58.851Z,30.32
2018-12-17T09:01:02.417Z,28.73
2018-12-17T09:03:06.242Z,28.40
2018-12-17T09:05:10.562Z,29.05
2018-12-17T09:07:14.054Z,28.75
2018-12-17T09:09:18.290Z,30.08
2018-12-17T09:11:22.382Z,28.60
2018-12-17T09:13:25.938Z,27.62
2018-12-17T09:15:29.706Z,29.63
2018-12-17T09:17:33.598Z,28.35
2018-12-17T09:19:37.117Z,29.32
2018-12-17T09:21:41.331Z,27.67
2018-12-17T09:23:45.278Z,29.15
2018-12-17T09:25:48.718Z,27.50
2018-12-17T09:27:51.928Z,28.92
2018-12-17T09:29:55.571Z,27.00
2018-12-17T09:31:59.189Z,27.58
2018-12-17T09:34:02.761Z,27.52
2018-12-17T09:36:06.260Z,28.77
2018-12-17T09:38:09.905Z,28.43
2018-12-17T09:40:13.770Z,29.10
2018-12-17T09:42:17.256Z,28.85
2018-12-17T09:44:20.742Z,28.55
2018-12-17T09:46:24.221Z,27.77
2018-12-17T09:48:27.692Z,28.98
2018-12-17T09:50:31.061Z,27.30
2018-12-17T09:52:34.546Z,29.20
2018-12-17T09:54:38.052Z,28.12
2018-12-17T09:56:41.309Z,28.80
2018-12-17T09:58:44.782Z,30.65
2018-12-17T10:00:48.278Z,27.75
2018-12-17T10:02:54.951Z,27.77
2018-12-17T10:04:58.601Z,28.95
2018-12-17T10:07:02.383Z,27.75
2018-12-17T10:09:07.353Z,27.85
2018-12-17T10:11:10.830Z,28.15
2018-12-17T10:13:14.036Z,27.37
2018-12-17T10:15:17.531Z,26.90
2018-12-17T10:17:21.069Z,27.98
2018-12-17T10:19:24.253Z,28.23
2018-12-17T10:21:27.724Z,27.48
2018-12-17T10:23:31.482Z,27.93
2018-12-17T10:25:34.986Z,28.15
2018-12-17T10:27:38.772Z,26.75
2018-12-17T10:29:42.890Z,26.30
2018-12-17T10:31:46.782Z,25.32
2018-12-17T10:33:50.648Z,27.15
2018-12-17T10:35:54.011Z,27.50
2018-12-17T10:37:57.977Z,27.05
2018-12-17T10:40:01.234Z,27.37
2018-12-17T10:42:04.768Z,27.40
2018-12-17T10:44:08.277Z,28.38
2018-12-17T10:46:11.761Z,27.13
2018-12-17T10:48:15.260Z,27.60
2018-12-17T10:50:18.523Z,27.73
2018-12-17T10:52:22.392Z,27.30
2018-12-17T10:54:26.575Z,26.73
2018-12-17T10:56:29.844Z,26.80
2018-12-17T10:58:33.948Z,25.97
2018-12-17T11:00:43.408Z,26.15
2018-12-17T11:02:47.915Z,27.32
2018-12-17T11:04:56.960Z,28.23
2018-12-17T11:07:01.266Z,27.15
2018-12-17T11:09:07.866Z,26.15
2018-12-17T11:11:11.773Z,25.15
2018-12-17T11:13:15.603Z,25.25
2018-12-17T11:15:19.091Z,25.43
2018-12-17T11:17:22.627Z,25.43
2018-12-17T11:19:26.803Z,25.20
2018-12-17T11:21:30.403Z,24.60
2018-12-17T11:23:33.877Z,25.32
2018-12-17T11:25:37.930Z,24.43
2018-12-17T11:27:41.567Z,25.30
2018-12-17T11:29:45.056Z,23.85
2018-12-17T11:31:48.262Z,23.80
2018-12-17T11:33:51.742Z,24.12
2018-12-17T11:35:55.931Z,25.70
2018-12-17T11:37:59.466Z,25.27
2018-12-17T11:40:03.782Z,25.87
2018-12-17T11:42:07.946Z,25.97
2018-12-17T11:44:11.771Z,24.47
2018-12-17T11:46:15.307Z,25.52
2018-12-17T11:48:19.234Z,26.00
2018-12-17T11:50:23.147Z,25.72
2018-12-17T11:52:26.651Z,26.25
2018-12-17T11:54:30.146Z,26.33
2018-12-17T11:57:44.715Z,25.97
2018-12-17T11:59:48.153Z,24.47
2018-12-17T12:01:51.316Z,26.93
2018-12-17T12:03:54.520Z,26.55
2018-12-17T12:05:58.146Z,25.60
2018-12-17T12:08:01.618Z,25.90
2018-12-17T12:10:06.402Z,27.42
2018-12-17T12:12:10.186Z,25.68
2018-12-17T12:14:13.962Z,26.62
2018-12-17T12:16:17.248Z,25.53
2018-12-17T12:18:20.752Z,25.55
2018-12-17T12:20:24.992Z,25.77
2018-12-17T12:22:28.755Z,25.80
2018-12-17T12:24:32.258Z,25.52
2018-12-17T12:26:36.098Z,26.55
2018-12-17T12:28:39.554Z,25.35
2018-12-17T12:30:42.778Z,25.35
2018-12-17T12:32:48.006Z,25.12
2018-12-17T12:34:51.256Z,24.43
2018-12-17T12:36:54.799Z,25.55
2018-12-17T12:38:58.315Z,26.90
2018-12-17T12:41:01.498Z,25.43
2018-12-17T12:43:05.408Z,25.10
2018-12-17T12:45:10.611Z,24.90
2018-12-17T12:47:13.859Z,25.30
2018-12-17T12:49:17.401Z,24.80
2018-12-17T12:51:21.195Z,24.40
2018-12-17T12:53:24.718Z,25.12
2018-12-17T12:55:28.024Z,25.30
2018-12-17T12:57:31.749Z,24.40
2018-12-17T12:59:35.590Z,24.72
2018-12-17T13:01:41.867Z,25.82
2018-12-17T13:03:45.346Z,25.27
2018-12-17T13:05:48.681Z,25.25
2018-12-17T13:07:52.146Z,26.50
2018-12-17T13:09:56.051Z,24.35
2018-12-17T13:11:59.642Z,23.67
2018-12-17T13:14:03.247Z,24.50
2018-12-17T13:16:06.810Z,26.40
2018-12-17T13:18:10.078Z,25.43
2018-12-17T13:20:13.758Z,25.20
2018-12-17T13:22:17.295Z,25.77
2018-12-17T13:24:20.674Z,27.20
2018-12-17T13:26:24.253Z,26.55
2018-12-17T13:28:27.475Z,26.80
2018-12-17T13:30:31.160Z,26.12
2018-12-17T13:32:34.602Z,26.62
2018-12-17T13:34:38.622Z,26.87
2018-12-17T13:36:41.859Z,26.60
2018-12-17T13:38:45.410Z,26.45
2018-12-17T13:40:49.210Z,25.45
2018-12-17T13:42:52.902Z,27.45
2018-12-17T13:44:56.392Z,26.17
2018-12-17T13:46:59.900Z,26.55
2018-12-17T13:49:03.864Z,26.52
2018-12-17T13:51:13.259Z,26.85
2018-12-17T13:53:22.346Z,26.97
2018-12-17T13:55:25.898Z,27.50
2018-12-17T13:57:29.391Z,26.62
2018-12-17T13:59:33.061Z,26.02
2018-12-17T14:01:36.587Z,26.50
2018-12-17T14:03:40.084Z,26.07
2018-12-17T14:05:44.498Z,26.25
2018-12-17T14:07:47.997Z,26.48
2018-12-17T14:09:56.878Z,26.90
2018-12-17T14:12:00.423Z,27.13
2018-12-17T14:14:04.755Z,27.42
2018-12-17T14:16:14.638Z,27.22
2018-12-17T14:18:24.939Z,26.60
2018-12-17T14:20:34.330Z,30.05
2018-12-17T14:22:37.856Z,27.83
2018-12-17T14:24:41.166Z,27.50
2018-12-17T14:26:44.390Z,25.13
2018-12-17T14:28:47.924Z,26.60
2018-12-17T14:30:51.430Z,27.37
2018-12-17T14:32:54.639Z,26.23
2018-12-17T14:34:58.863Z,25.27
2018-12-17T14:37:02.802Z,25.68
2018-12-17T14:39:08.228Z,27.87
2018-12-17T14:41:11.715Z,28.25
2018-12-17T14:43:14.905Z,26.70
2018-12-17T14:45:18.456Z,27.30
2018-12-17T14:47:22.335Z,29.20
2018-12-17T14:49:26.599Z,27.32
2018-12-17T14:51:30.082Z,26.80
2018-12-17T14:53:33.502Z,27.47
2018-12-17T14:55:37.421Z,28.05
2018-12-17T14:57:42.356Z,28.40
2018-12-17T14:59:45.834Z,27.63
2018-12-17T15:01:49.657Z,28.87
2018-12-17T15:03:52.863Z,28.70
2018-12-17T15:05:56.383Z,28.80
2018-12-17T15:08:00.547Z,28.50
2018-12-17T15:10:05.467Z,29.12
2018-12-17T15:12:09.342Z,29.00
2018-12-17T15:14:13.148Z,31.07
2018-12-17T15:16:16.993Z,28.05
2018-12-17T15:18:20.473Z,28.65
2018-12-17T15:20:24.130Z,27.30
2018-12-17T15:22:27.650Z,27.25
2018-12-17T15:24:30.874Z,29.00
2018-12-17T15:26:34.953Z,29.20
2018-12-17T15:28:38.699Z,28.25
2018-12-17T15:30:41.995Z,27.17
2018-12-17T15:32:45.934Z,28.47
2018-12-17T15:34:49.160Z,29.02
2018-12-17T15:36:52.370Z,27.93
2018-12-17T15:38:56.259Z,28.00
2018-12-17T15:41:00.057Z,28.02
2018-12-17T15:43:03.942Z,28.42
2018-12-17T15:45:08.606Z,27.95
2018-12-17T15:47:11.885Z,29.00
2018-12-17T15:49:15.381Z,29.10
2018-12-17T15:51:18.876Z,27.50
2018-12-17T15:53:22.718Z,28.02
2018-12-17T15:55:26.254Z,27.07
2018-12-17T15:57:29.726Z,27.35
2018-12-17T15:59:34.198Z,26.80
2018-12-17T16:01:37.386Z,26.27
2018-12-17T16:03:40.973Z,27.32
2018-12-17T16:05:44.484Z,24.95
2018-12-17T16:07:47.766Z,25.50
2018-12-17T16:09:53.761Z,27.13
2018-12-17T16:11:58.620Z,24.67
2018-12-17T16:14:03.278Z,25.30
2018-12-17T16:16:06.771Z,26.40
2018-12-17T16:18:09.958Z,25.35
2018-12-17T16:20:13.145Z,25.17
2018-12-17T16:22:16.698Z,23.55
2018-12-17T16:24:20.507Z,25.57
2018-12-17T16:26:24.392Z,23.40
2018-12-17T16:28:28.294Z,23.45
2018-12-17T16:30:31.770Z,25.10
2018-12-17T16:32:35.298Z,25.27
2018-12-17T16:34:38.989Z,24.23
2018-12-17T16:36:43.690Z,23.65
2018-12-17T16:38:46.921Z,22.40
2018-12-17T16:40:50.447Z,24.40
2018-12-17T16:42:54.382Z,24.65
2018-12-17T16:44:57.862Z,24.20
2018-12-17T16:47:01.118Z,22.65
2018-12-17T16:49:05.586Z,24.20
2018-12-17T16:51:09.082Z,24.20
2018-12-17T16:53:12.306Z,24.32
2018-12-17T16:55:15.619Z,23.47
2018-12-17T16:57:19.482Z,24.60
2018-12-17T16:59:22.707Z,23.57
2018-12-17T17:01:26.544Z,24.05
2018-12-17T17:03:29.814Z,23.77
2018-12-17T17:05:33.318Z,23.47
2018-12-17T17:07:36.908Z,21.73
2018-12-17T17:09:40.098Z,23.20
2018-12-17T17:11:44.419Z,24.43
2018-12-17T17:13:48.139Z,22.85
2018-12-17T17:15:51.768Z,24.30
2018-12-17T17:17:55.198Z,23.18
2018-12-17T17:19:58.486Z,23.70
2018-12-17T17:22:02.351Z,23.45
2018-12-17T17:24:05.538Z,23.30
2018-12-17T17:26:08.986Z,23.70
2018-12-17T17:28:12.482Z,23.30
2018-12-17T17:30:16.055Z,24.63
2018-12-17T17:32:20.090Z,22.98
2018-12-17T17:34:23.979Z,23.52
2018-12-17T17:36:27.181Z,23.30
2018-12-17T17:38:30.994Z,24.12
2018-12-17T17:40:34.404Z,25.05
2018-12-17T17:42:37.898Z,23.15
2018-12-17T17:44:41.374Z,23.77
2018-12-17T17:46:44.987Z,23.40
2018-12-17T17:48:49.967Z,24.07
2018-12-17T17:50:53.798Z,23.32
2018-12-17T17:52:57.298Z,23.62
2018-12-17T17:55:00.811Z,24.40
2018-12-17T17:57:05.206Z,23.47
2018-12-17T17:59:08.723Z,23.50
2018-12-17T18:01:12.758Z,23.55
2018-12-17T18:03:16.287Z,23.30
2018-12-17T18:05:19.741Z,23.20
2018-12-17T18:07:23.226Z,22.25
2018-12-17T18:09:27.110Z,22.00
2018-12-17T18:11:30.686Z,22.80
2018-12-17T18:13:34.206Z,22.85
2018-12-17T18:15:37.775Z,24.20
2018-12-17T18:17:41.506Z,22.48
2018-12-17T18:19:45.170Z,23.55
2018-12-17T18:21:48.757Z,24.18
2018-12-17T18:23:51.999Z,22.40
2018-12-17T18:25:55.228Z,22.00
2018-12-17T18:27:58.766Z,22.60
2018-12-17T18:30:02.629Z,23.85
2018-12-17T18:32:06.677Z,22.80
2018-12-17T18:34:10.178Z,22.62
2018-12-17T18:36:13.670Z,21.15
2018-12-17T18:38:17.224Z,23.13
2018-12-17T18:40:21.159Z,23.65
2018-12-17T18:42:24.648Z,23.10
2018-12-17T18:44:28.666Z,22.62
2018-12-17T18:46:32.787Z,23.00
2018-12-17T18:48:37.320Z,23.07
2018-12-17T18:50:40.822Z,23.87
2018-12-17T18:52:44.744Z,22.55
2018-12-17T18:54:48.427Z,22.00
2018-12-17T18:56:52.122Z,21.70
2018-12-17T18:58:55.780Z,22.27
2018-12-17T19:00:59.282Z,22.02
2018-12-17T19:03:02.761Z,21.42
2018-12-17T19:05:07.079Z,22.80
2018-12-17T19:07:10.645Z,20.95
2018-12-17T19:09:14.627Z,21.30
2018-12-17T19:11:18.149Z,21.40
2018-12-17T19:13:21.903Z,21.93
2018-12-17T19:15:25.431Z,22.73
2018-12-17T19:17:28.944Z,20.62
2018-12-17T19:19:32.994Z,20.30
2018-12-17T19:21:37.399Z,21.12
2018-12-17T19:23:41.207Z,20.83
2018-12-17T19:25:44.998Z,20.50
2018-12-17T19:27:48.487Z,20.23
2018-12-17T19:29:52.018Z,21.65
2018-12-17T19:31:55.642Z,20.50
2018-12-17T19:33:59.131Z,20.85
2018-12-17T19:36:02.661Z,21.13
2018-12-17T19:38:06.433Z,22.00
2018-12-17T19:40:10.555Z,20.72
2018-12-17T19:42:14.470Z,20.62
2018-12-17T19:44:19.630Z,19.90
2018-12-17T19:46:22.922Z,19.03
2018-12-17T19:48:26.806Z,19.48
2018-12-17T19:50:30.154Z,20.47
2018-12-17T19:52:33.621Z,19.65
2018-12-17T19:54:37.523Z,20.55
2018-12-17T19:56:41.041Z,20.40
2018-12-17T19:58:44.238Z,20.60
2018-12-17T20:00:47.531Z,21.37
2018-12-17T20:02:51.381Z,20.35
2018-12-17T20:04:55.634Z,20.08
2018-12-17T20:06:59.150Z,19.35
2018-12-17T20:09:03.449Z,19.92
2018-12-17T20:11:07.306Z,21.20
2018-12-17T20:13:10.854Z,21.10
2018-12-17T20:15:14.780Z,20.80
2018-12-17T20:17:18.393Z,20.23
2018-12-17T20:19:21.906Z,20.60
2018-12-17T20:21:25.474Z,20.23
2018-12-17T20:23:29.283Z,20.37
2018-12-17T20:25:33.078Z,20.00
2018-12-17T20:27:36.674Z,20.70
2018-12-17T20:29:40.186Z,20.75
2018-12-17T20:31:44.110Z,19.67
2018-12-17T20:33:48.045Z,20.90
2018-12-17T20:35:51.551Z,20.55
2018-12-17T20:37:55.570Z,20.40
2018-12-17T20:39:59.067Z,21.70
2018-12-17T20:42:02.300Z,20.67
2018-12-17T20:44:05.986Z,21.42
2018-12-17T20:46:09.681Z,22.67
2018-12-17T20:48:13.197Z,22.58
2018-12-17T20:50:16.495Z,21.52
2018-12-17T20:52:20.262Z,22.90
2018-12-17T20:54:24.593Z,21.70
2018-12-17T20:56:28.400Z,21.52
2018-12-17T20:58:31.957Z,21.40
2018-12-17T21:00:35.659Z,22.40
2018-12-17T21:02:39.544Z,23.60
2018-12-17T21:04:43.582Z,21.42
2018-12-17T21:06:50.072Z,21.90
2018-12-17T21:08:52.647Z,22.63
2018-12-17T21:10:56.166Z,22.25
2018-12-17T21:12:59.986Z,21.57
2018-12-17T21:15:05.025Z,21.60
2018-12-17T21:17:08.510Z,21.77
2018-12-17T21:19:12.211Z,22.32
2018-12-17T21:21:15.706Z,21.85
2018-12-17T21:23:19.961Z,22.50
2018-12-17T21:25:23.804Z,22.52
2018-12-17T21:27:27.236Z,22.20
2018-12-17T21:29:30.493Z,24.27
2018-12-17T21:31:33.984Z,22.20
2018-12-17T21:33:37.466Z,23.05
2018-12-17T21:35:40.822Z,22.22
2018-12-17T21:37:44.375Z,23.42
2018-12-17T21:39:47.849Z,23.02
2018-12-17T21:41:51.122Z,24.83
2018-12-17T21:43:54.695Z,23.00
2018-12-17T21:45:58.231Z,23.10
2018-12-17T21:48:01.765Z,22.98
2018-12-17T21:50:06.882Z,24.47
2018-12-17T21:52:10.371Z,22.90
2018-12-17T21:54:14.120Z,23.02
2018-12-17T21:56:17.920Z,24.65
2018-12-17T21:58:21.438Z,24.20
2018-12-17T22:00:25.391Z,24.15
2018-12-17T22:02:29.643Z,23.55
2018-12-17T22:04:33.186Z,23.92
2018-12-17T22:06:36.686Z,24.75
2018-12-17T22:08:40.225Z,24.55
2018-12-17T22:10:43.558Z,23.70
2018-12-17T22:12:47.230Z,23.12
2018-12-17T22:14:50.434Z,23.40
2018-12-17T22:16:53.634Z,23.25
2018-12-17T22:18:57.213Z,24.97
2018-12-17T22:21:00.788Z,23.77
2018-12-17T22:23:04.574Z,24.40
2018-12-17T22:25:08.926Z,23.83
2018-12-17T22:27:12.455Z,24.43
2018-12-17T22:29:16.362Z,24.23
2018-12-17T22:31:20.161Z,24.63
2018-12-17T22:33:23.626Z,23.47
2018-12-17T22:35:27.098Z,23.70
2018-12-17T22:37:31.003Z,24.43
2018-12-17T22:39:34.546Z,24.30
2018-12-17T22:41:38.422Z,24.70
2018-12-17T22:43:41.925Z,25.50
2018-12-17T22:45:45.140Z,26.57
2018-12-17T22:47:48.346Z,24.83
2018-12-17T22:49:51.590Z,25.97
2018-12-17T22:51:55.087Z,23.40
2018-12-17T22:53:58.559Z,26.17
2018-12-17T22:56:01.906Z,27.87
2018-12-17T22:58:06.037Z,25.08
2018-12-17T23:00:10.787Z,26.87
2018-12-17T23:02:14.450Z,25.48
2018-12-17T23:04:18.190Z,26.07
2018-12-17T23:06:21.390Z,27.60
2018-12-17T23:08:24.930Z,27.47
2018-12-17T23:10:45.309Z,27.95
2018-12-17T23:12:59.900Z,26.55
2018-12-17T23:15:14.981Z,26.00
2018-12-17T23:17:30.059Z,26.23
2018-12-17T23:19:40.498Z,27.73
2018-12-17T23:21:44.394Z,27.75
2018-12-17T23:23:47.954Z,26.12
2018-12-17T23:25:51.470Z,26.55
2018-12-17T23:27:54.874Z,26.10
2018-12-17T23:29:58.433Z,26.75
2018-12-17T23:32:02.718Z,28.25
2018-12-17T23:34:07.200Z,27.77
2018-12-17T23:36:10.678Z,27.30
2018-12-17T23:38:14.174Z,27.07
2018-12-17T23:40:17.702Z,27.13
2018-12-17T23:42:21.606Z,26.82
2018-12-17T23:44:25.510Z,26.27
2018-12-17T23:46:29.799Z,26.93
2018-12-17T23:48:33.595Z,28.55
2018-12-17T23:50:36.798Z,28.73
2018-12-17T23:52:40.250Z,27.23
2018-12-17T23:54:43.743Z,28.27
2018-12-17T23:56:47.236Z,27.02
2018-12-17T23:58:50.760Z,27.90
